Nearby METAR Reports - 80 Mile Radius
Meteorological Terminal Air Report (METAR)


KBWI - Balto/Wash Intl Airport, Maryland
Distance from station: S 5mi, 8km
Updated: Tue, 25-Jul-2017 1:54am EDT
Clear
Clear
 Wind from NW
Wind: NW 6 mph , 9 km/h
Temperature: 72°F , 22°C
Dew Point: 72°F , 22°C
Humidity: 100%
Barometer: 29.94 inHg , 1013.9 hPa
Clouds: Clear
Visibility: 10 miles , 16 km
2017/07/25 05:54 KBWI 250554Z 32005KT 10SM CLR 22/22 A2994 RMK AO2 SLP139 60002 T02220217 10272 20222 53023
KDMH - Baltimore/Dwntwn, Maryland
Distance from station: NE 5mi, 9km
Updated: Tue, 25-Jul-2017 1:54am EDT

 
Temperature: 75°F , 24°C
Dew Point: 68°F , 20°C
Humidity: 78%
Barometer: 29.95 inHg , 1014.2 hPa
2017/07/25 05:54 KDMH 250554Z AUTO 24/20 A2995 RMK AO1 SLP141 60021 T02440200 10300 20244 53023
KFME - Fort Meade/Tipton AAF, Maryland
Distance from station: SSW 11mi, 18km
Updated: Tue, 25-Jul-2017 2:30am EDT
Clear
Clear
 Wind from calm
Wind: Calm
Temperature: 70°F , 21°C
Dew Point: 66°F , 19°C
Humidity: 88%
Barometer: 29.98 inHg , 1015.2 hPa
Clouds: Clear
Visibility: 10 miles , 16 km
2017/07/25 06:30 KFME 250630Z AUTO 00000KT 10SM CLR 21/19 A2998 RMK AO1
 
KMTN - Balto/Martin State Airport, Maryland
Distance from station: ENE 16mi, 26km
Updated: Tue, 25-Jul-2017 2:18am EDT
Clear
Clear
 Wind from WNW
Wind: WNW 6 mph , 9 km/h
Temperature: 72°F , 22°C
Dew Point: 68°F , 20°C
Humidity: 88%
Barometer: 29.96 inHg , 1014.6 hPa
Clouds: Clear
Visibility: 10 miles , 16 km
2017/07/25 06:18 KMTN 250618Z AUTO 30005KT 10SM CLR 22/20 A2996 RMK AO2
KCGS - College Park Airport, Maryland
Distance from station: SSW 21mi, 34km
Updated: Tue, 25-Jul-2017 2:28am EDT
Clear
Clear
 Wind from N
Wind: N 5 mph , 7 km/h
Temperature: 73°F , 23°C
Dew Point: 64°F , 18°C
Humidity: 74%
Barometer: 29.96 inHg , 1014.6 hPa
Clouds: Clear
Visibility: 10 miles , 16 km
2017/07/25 06:28 KCGS 250628Z AUTO 35004KT 10SM CLR 23/18 A2996 RMK AO1 T02300184
KNAK - Annapolis/Naval Academy, Maryland
Distance from station: SE 21mi, 34km
Updated: Tue, 25-Jul-2017 1:54am EDT
Mostly cloudy
Mostly cloudy
 Wind from N
Wind: N 9 mph , 15 km/h
Temperature: 79°F , 26°C
Dew Point: 73°F , 23°C
Humidity: 84%
Barometer: 29.93 inHg , 1013.5 hPa
Clouds: Mostly cloudy
Visibility: 10 miles , 16 km
Cloud details: Mostly cloudy 9000 ft
2017/07/25 05:54 KNAK 250554Z AUTO 36008KT 10SM BKN090 26/23 A2993 RMK AO2 SLP138 60001 T02560233 10300 20256 53023
 
KGAI - Gaithersburg/Montgomery Co Airpark, Maryland
Distance from station: W 26mi, 41km
Updated: Tue, 25-Jul-2017 1:56am EDT
Clear
Clear
 Wind from NW
Wind: NW 5 mph , 7 km/h
Temperature: 72°F , 22°C
Dew Point: 63°F , 17°C
Humidity: 73%
Barometer: 29.97 inHg , 1014.9 hPa
Clouds: Clear
Visibility: 10 miles , 16 km
2017/07/25 05:56 KGAI 250556Z AUTO 32004KT 10SM CLR 22/17 A2997 RMK AO2 SLP169 T02220167 10283 20222 51019
KW29 - Stevensville/Bay Bridge Airport, Maryland
Distance from station: SE 26mi, 42km
Updated: Tue, 25-Jul-2017 2:25am EDT
Partly cloudy
Partly cloudy
 Wind from N
Wind: N 13 mph , 20 km/h, Gust: 21 mph , 33 km/h
Temperature: 77°F , 25°C
Dew Point: 64°F , 18°C
Humidity: 65%
Barometer: 29.94 inHg , 1013.9 hPa
Clouds: Partly cloudy
Visibility: 10 miles , 16 km
Cloud details: Partly cloudy 8000 ft
2017/07/25 06:25 KW29 250625Z AUTO 36011G18KT 10SM SCT080 25/18 A2994 RMK AO2
KDMW - Carroll Co Regional Airport, Maryland
Distance from station: NNW 30mi, 48km
Updated: Tue, 25-Jul-2017 2:30am EDT
Clear
Clear
 Wind from NW
Wind: NW 6 mph , 9 km/h
Temperature: 70°F , 21°C
Dew Point: 61°F , 16°C
Humidity: 73%
Barometer: 29.98 inHg , 1015.2 hPa
Clouds: Clear
Visibility: 10 miles , 16 km
2017/07/25 06:30 KDMW 250630Z AUTO 31005KT 10SM CLR 21/16 A2998 RMK AO2
 
KADW - Andrews AFB, Maryland
Distance from station: SSW 30mi, 49km
Updated: Tue, 25-Jul-2017 1:58am EDT
Clear
Clear
 Wind from NNW
Wind: NNW 12 mph , 19 km/h
Temperature: 75°F , 24°C
Dew Point: 66°F , 19°C
Humidity: 74%
Barometer: 29.94 inHg , 1013.9 hPa
Clouds: Clear
Visibility: 10 miles , 16 km
2017/07/25 05:58 KADW 250558Z AUTO 34010KT 10SM CLR 24/19 A2994 RMK AO2 SLP143 60002 T02430193 10275 20243 52024
KAPG - Aberdeen/Phillip AAF, Maryland
Distance from station: ENE 32mi, 52km
Updated: Tue, 25-Jul-2017 1:58am EDT
Few Clouds
Few Clouds
 Wind from calm
Wind: Calm
Temperature: 70°F , 21°C
Dew Point: 68°F , 20°C
Humidity: 94%
Barometer: 29.95 inHg , 1014.2 hPa
Clouds: Few Clouds
Visibility: 10 miles , 16 km
Cloud details: Few Clouds 10000 ft
2017/07/25 05:58 KAPG 250558Z AUTO 00000KT 10SM FEW100 21/20 A2995 RMK AO2 SLP145 60002 T02120195 10285 20212 52025
KDCA - Washington/Natl Airport, Washington D.C.
Distance from station: SW 32mi, 52km
Updated: Tue, 25-Jul-2017 1:52am EDT
Overcast
Overcast
 Wind from N
Wind: N 13 mph , 20 km/h
Temperature: 79°F , 26°C
Dew Point: 64°F , 18°C
Humidity: 61%
Barometer: 29.95 inHg , 1014.2 hPa
Clouds: Overcast
Visibility: 10 miles , 16 km
Cloud details: Few Clouds 13000 ft
Overcast 22000 ft
2017/07/25 05:52 KDCA 250552Z 35011KT 10SM FEW130 OVC220 26/18 A2995 RMK AO2 SLP141 60000 T02610183 10300 20261 52025
 
KFDK - Frederick Municipal Airport, Maryland
Distance from station: WNW 38mi, 61km
Updated: Tue, 25-Jul-2017 2:25am EDT
Clear
Clear
 Wind from NNW
Wind: NNW 9 mph , 15 km/h
Temperature: 72°F , 22°C
Dew Point: 55°F , 13°C
Humidity: 57%
Barometer: 30.01 inHg , 1016.3 hPa
Clouds: Clear
Visibility: 10 miles , 16 km
2017/07/25 06:25 KFDK 250625Z AUTO 34008KT 10SM CLR 22/13 A3001 RMK AO2 LTG DSNT E AND SE
KDAA - Fort Belvoir/Davison AAF, Virginia
Distance from station: SW 44mi, 71km
Updated: Tue, 25-Jul-2017 1:58am EDT
Clear
Clear
 Wind from NNW
Wind: NNW 5 mph , 7 km/h, Gust: 16 mph , 26 km/h
Temperature: 77°F , 25°C
Dew Point: 64°F , 18°C
Humidity: 65%
Barometer: 29.94 inHg , 1013.9 hPa
Clouds: Clear
Visibility: 10 miles , 16 km
2017/07/25 05:58 KDAA 250558Z AUTO 34004G14KT 10SM CLR 25/18 A2994 RMK AO2 SLP141 T02540181 10294 20254 52024
KESN - Easton/Newnam Field Airport, Maryland
Distance from station: SE 45mi, 73km
Updated: Tue, 25-Jul-2017 2:38am EDT
Clear
Clear
 Wind from NNE
Wind: NNE 3 mph , 6 km/h
Temperature: 73°F , 23°C
Dew Point: 70°F , 21°C
Humidity: 89%
Barometer: 29.97 inHg , 1014.9 hPa
Clouds: Clear
Visibility: 10 miles , 16 km
2017/07/25 06:38 KESN 250638Z AUTO 03003KT 10SM CLR 23/21 A2997 RMK AO2 T02310212
 
KIAD - Wash DC/Dulles Intl, Virginia
Distance from station: WSW 45mi, 73km
Updated: Tue, 25-Jul-2017 1:52am EDT
Mostly cloudy
Mostly cloudy
 Wind from NNW
Wind: NNW 10 mph , 17 km/h
Temperature: 75°F , 24°C
Dew Point: 61°F , 16°C
Humidity: 61%
Barometer: 29.96 inHg , 1014.6 hPa
Clouds: Mostly cloudy
Visibility: 10 miles , 16 km
Cloud details: Few Clouds 9000 ft
Mostly cloudy 25000 ft
2017/07/25 05:52 KIAD 250552Z 34009KT 10SM FEW090 BKN250 24/16 A2996 RMK AO2 SLP141 T02390161 10283 20239 51021
KJYO - Leesburg/Godfrey Field, Virginia
Distance from station: WSW 48mi, 77km
Updated: Tue, 25-Jul-2017 2:15am EDT
Clear
Clear
 Wind from N
Wind: N 12 mph , 19 km/h, Gust: 18 mph , 30 km/h
Temperature: 73°F , 23°C
Dew Point: 63°F , 17°C
Humidity: 69%
Barometer: 29.98 inHg , 1015.2 hPa
Clouds: Clear
Visibility: 10 miles , 16 km
2017/07/25 06:15 KJYO 250615Z AUTO 36010G16KT 10SM CLR 23/17 A2998 RMK AO2
KTHV - York Airport, Pennsylvania
Distance from station: NNW 48mi, 77km
Updated: Mon, 24-Jul-2017 8:53pm EDT
NOT Current
Clear
Clear
 Wind from calm
Wind: Calm
Temperature: 72°F , 22°C
Dew Point: 72°F , 22°C
Humidity: 100%
Barometer: 29.85 inHg , 1010.8 hPa
Clouds: Clear
Visibility: 9 miles , 14 km
2017/07/25 00:53 KTHV 250053Z AUTO 00000KT 9SM CLR 22/22 A2985 RMK AO2 LTG DSNT SE AND S SLP107 T02170217
 
KRSP - Naval Support Fac Thurmont, Maryland, USA
Distance from station: NW 50mi, 81km
Updated: Tue, 25-Jul-2017 1:54am EDT
Clear
Clear
 Wind from NNW
Wind: NNW 8 mph , 13 km/h, Gust: 18 mph , 30 km/h
Temperature: 63°F , 17°C
Dew Point: 57°F , 14°C
Humidity: 83%
Barometer: 30.02 inHg , 1016.6 hPa
Clouds: Clear
Visibility: 10 miles , 16 km
2017/07/25 05:54 KRSP 250554Z AUTO 34007G16KT 10SM CLR 17/14 A3002 RMK AO2 SLP158 T01670144 10233 20167 51016 $
KRYT - Fountain Dale Airport, Pennsylvania
Distance from station: NW 52mi, 84km
Updated: Tue, 25-Jul-2017 1:53am EDT
Clear
Clear
 Wind from calm
Wind: Calm
Barometer: 29.99 inHg , 1015.6 hPa
Clouds: Clear
Visibility: 10 miles , 16 km
2017/07/25 05:53 KRYT 250553Z AUTO 00000KT 10SM CLR A2999 RMK AO2 SLPNO 51020 TSNO $
KHEF - Manassas Municipal Airport, Virginia
Distance from station: SW 57mi, 91km
Updated: Tue, 25-Jul-2017 1:56am EDT
Clear
Clear
 Wind from N
Wind: N 10 mph , 17 km/h
Temperature: 75°F , 24°C
Dew Point: 64°F , 18°C
Humidity: 69%
Barometer: 29.95 inHg , 1014.2 hPa
Clouds: Clear
Visibility: 10 miles , 16 km
2017/07/25 05:56 KHEF 250556Z AUTO 35009KT 10SM CLR 24/18 A2995 RMK AO2 SLP150 6//// T02390183 10289 20239 51021 PNO $
 
KNYG - Quantico Marine Corps Air Fac, Virginia
Distance from station: SSW 60mi, 96km
Updated: Tue, 25-Jul-2017 1:56am EDT
Clear
Clear
 Wind from N
Wind: N 10 mph , 17 km/h
Temperature: 81°F , 27°C
Heat Index: 85°F , 29°C
Dew Point: 70°F , 21°C
Humidity: 70%
Barometer: 29.94 inHg , 1013.9 hPa
Clouds: Clear
Visibility: 10 miles , 16 km
2017/07/25 05:56 KNYG 250556Z AUTO 01009KT 10SM CLR 27/21 A2994 RMK AO2 SLP139 60000 T02670206 10306 20261 51022
KCGE - Cambridge-Dorchester Reg Airport, Maryland
Distance from station: SE 60mi, 97km
Updated: Tue, 25-Jul-2017 2:30am EDT
Clear
Clear
 Wind from N
Wind: N 9 mph , 15 km/h
Temperature: 75°F , 24°C
Dew Point: 72°F , 22°C
Humidity: 89%
Barometer: 29.92 inHg , 1013.2 hPa
Clouds: Clear
Visibility: 10 miles , 16 km
2017/07/25 06:30 KCGE 250630Z AUTO 35008KT 10SM CLR 24/22 A2992 RMK A01
K2W6 - St Marys Co Reg Airport, Maryland
Distance from station: SSE 64mi, 103km
Updated: Tue, 25-Jul-2017 2:17am EDT
Partly cloudy
Partly cloudy
 Wind from N
Wind: N 5 mph , 7 km/h
Temperature: 77°F , 25°C
Dew Point: 68°F , 20°C
Humidity: 74%
Barometer: 29.95 inHg , 1014.2 hPa
Clouds: Partly cloudy
Visibility: 10 miles , 16 km
Cloud details: Partly cloudy 8500 ft
2017/07/25 06:17 K2W6 250617Z AUTO 35004KT 10SM SCT085 25/20 A2995 RMK AO1
 
KHGR - Hagerstown Reg Airport, Maryland
Distance from station: WNW 64mi, 103km
Updated: Tue, 25-Jul-2017 1:53am EDT
Few Clouds
Few Clouds
 Wind from N
Wind: N 9 mph , 15 km/h
Temperature: 70°F , 21°C
Dew Point: 57°F , 14°C
Humidity: 64%
Barometer: 30.00 inHg , 1015.9 hPa
Clouds: Few Clouds
Visibility: 10 miles , 16 km
Cloud details: Few Clouds 4500 ft
2017/07/25 05:53 KHGR 250553Z AUTO 35008KT 10SM FEW045 21/14 A3000 RMK AO2 SLP163 T02110139 10272 20211 53020
KLNS - Lancaster Airport, Pennsylvania
Distance from station: NNE 64mi, 104km
Updated: Tue, 25-Jul-2017 1:53am EDT
Clear
Clear
 Wind from NNW
Wind: NNW 6 mph , 9 km/h
Temperature: 70°F , 21°C
Dew Point: 66°F , 19°C
Humidity: 88%
Barometer: 29.96 inHg , 1014.6 hPa
Clouds: Clear
Visibility: 10 miles , 16 km
2017/07/25 05:53 KLNS 250553Z AUTO 33005KT 10SM CLR 21/19 A2996 RMK AO2 SLP142 60000 T02110194 10239 20211 51018
KILG - New Castle Airport, Wilmington, Delaware
Distance from station: ENE 66mi, 106km
Updated: Tue, 25-Jul-2017 1:51am EDT
Overcast
Overcast
 Wind from calm
Wind: Calm
Temperature: 72°F , 22°C
Dew Point: 72°F , 22°C
Humidity: 100%
Barometer: 29.95 inHg , 1014.2 hPa
Clouds: Overcast
Visibility: 10 miles , 16 km
Cloud details: Overcast 500 ft
2017/07/25 05:51 KILG 250551Z 00000KT 10SM OVC005 22/22 A2995 RMK AO2 CIG 004V008 SLP142 60058 T02220217 10283 20217 53017
 
KDOV - Dover Air Force Base, Delaware
Distance from station: E 66mi, 107km
Updated: Tue, 25-Jul-2017 1:58am EDT
Few Clouds
Few Clouds
 Wind from NW
Wind: NW 5 mph , 7 km/h
Temperature: 70°F , 21°C
Dew Point: 70°F , 21°C
Humidity: 100%
Barometer: 29.91 inHg , 1012.9 hPa
Clouds: Few Clouds
Visibility: 10 miles , 16 km
Cloud details: Few Clouds 7000 ft
2017/07/25 05:58 KDOV 250558Z 32004KT 10SM FEW070 21/21 A2991 RMK AO2A SLP131 60150 10281 20210 51025 $
KMDT - Harrisburg Intl Airport, Middletown, Pennsylvania
Distance from station: N 67mi, 107km
Updated: Tue, 25-Jul-2017 1:56am EDT
Few Clouds
Few Clouds
 Wind from WNW
Wind: WNW 8 mph , 13 km/h
Temperature: 70°F , 21°C
Dew Point: 61°F , 16°C
Humidity: 73%
Barometer: 29.96 inHg , 1014.6 hPa
Clouds: Few Clouds
Visibility: 10 miles , 16 km
Cloud details: Few Clouds 6500 ft
2017/07/25 05:56 KMDT 250556Z 29007KT 10SM FEW065 21/16 A2996 RMK AO2 SLP142 T02110161 10250 20211 51023
KMQS - Chester Co Carlson Airport, Coatesville, Pennsylvania
Distance from station: NE 68mi, 109km
Updated: Mon, 24-Jul-2017 7:55pm EDT
NOT Current
Heavy rain, Overcast
Heavy rain, Overcast
 Wind from NW
Wind: NW 9 mph , 15 km/h, Gust: 24 mph , 39 km/h
Temperature: 70°F , 21°C
Dew Point: 68°F , 20°C
Humidity: 94%
Barometer: 29.87 inHg , 1011.5 hPa
Summary: Heavy rain
Clouds: Overcast
Visibility: 1/4 mile , 2 km
Cloud details: Mostly cloudy 300 ft
Mostly cloudy 2000 ft
Overcast 3700 ft
2017/07/24 23:55 KMQS 242355Z AUTO 31008G21KT 1/4SM +RA BKN003 BKN020 OVC037 21/20 A2987 RMK AO2 P0041
 
KCXY - Capital City Airport, Harrisburg, Pennsylvania
Distance from station: N 68mi, 110km
Updated: Tue, 25-Jul-2017 1:56am EDT
Clear
Clear
 Wind from WSW
Wind: WSW 3 mph , 6 km/h
Temperature: 68°F , 20°C
Dew Point: 59°F , 15°C
Humidity: 73%
Barometer: 29.97 inHg , 1014.9 hPa
Clouds: Clear
Visibility: 10 miles , 16 km
2017/07/25 05:56 KCXY 250556Z AUTO 25003KT 10SM CLR 20/15 A2997 RMK AO2 SLP145 T02000150 10256 20194 51022
KNHK - Patuxent River NAS, Maryland
Distance from station: SE 69mi, 111km
Updated: Tue, 25-Jul-2017 1:52am EDT
Clear
Clear
 Wind from N
Wind: N 14 mph , 22 km/h, Gust: 25 mph , 41 km/h
Temperature: 81°F , 27°C
Heat Index: 85°F , 29°C
Dew Point: 72°F , 22°C
Humidity: 74%
Barometer: 29.92 inHg , 1013.2 hPa
Clouds: Clear
Visibility: 10 miles , 16 km
2017/07/25 05:52 KNHK 250552Z AUTO 01012G22KT 10SM CLR 27/22 A2992 RMK AO2 SLP130 T02670217 10283 20256 53024
KMRB - Eastern WV Reg Airport/Shepherd Field, Martinsburg, West Virginia
Distance from station: W 70mi, 112km
Updated: Tue, 25-Jul-2017 1:53am EDT
Mostly cloudy
Mostly cloudy
 Wind from N
Wind: N 7 mph , 11 km/h
Temperature: 72°F , 22°C
Dew Point: 57°F , 14°C
Humidity: 61%
Barometer: 30.00 inHg , 1015.9 hPa
Clouds: Mostly cloudy
Visibility: 10 miles , 16 km
Cloud details: Mostly cloudy 4700 ft
2017/07/25 05:53 KMRB 250553Z AUTO 01006KT 10SM BKN047 22/14 A3000 RMK AO2 SLP151 T02170139 10278 20217 53023 TSNO
 
KHWY - Warrenton-Fauquier Airport, Warrenton, Virginia
Distance from station: SW 71mi, 114km
Updated: Tue, 25-Jul-2017 2:15am EDT
Clear
Clear
 Wind from NNE
Wind: NNE 6 mph , 9 km/h
Temperature: 75°F , 24°C
Dew Point: 64°F , 18°C
Humidity: 69%
Barometer: 29.95 inHg , 1014.2 hPa
Clouds: Clear
Visibility: 10 miles , 16 km
2017/07/25 06:15 KHWY 250615Z AUTO 03005KT 10SM CLR 24/18 A2995 RMK AO2 T02420178
KRMN - Stafford Regional Airport, Virginia
Distance from station: SW 71mi, 114km
Updated: Tue, 25-Jul-2017 2:15am EDT
Clear
Clear
 Wind from N
Wind: N 7 mph , 11 km/h
Temperature: 75°F , 24°C
Dew Point: 66°F , 19°C
Humidity: 74%
Barometer: 29.98 inHg , 1015.2 hPa
Clouds: Clear
Visibility: 10 miles , 16 km
2017/07/25 06:15 KRMN 250615Z AUTO 36006KT 10SM CLR 24/19 A2998 RMK AO2 T02430190
KNUI - Webster Naval, St Inigoes, Maryland
Distance from station: S 76mi, 123km
Updated: Tue, 25-Jul-2017 1:53am EDT
Clear
Clear
 Wind from varies
Wind: varies 6 mph , 9 km/h
Temperature: 81°F , 27°C
Heat Index: 85°F , 29°C
Dew Point: 72°F , 22°C
Humidity: 74%
Barometer: 29.90 inHg , 1012.5 hPa
Clouds: Clear
Visibility: 10 miles , 16 km
2017/07/25 05:53 KNUI 250553Z AUTO VRB05KT 10SM CLR 27/22 A2990 RMK AO2 SLP125 T02670222 10283 20267 53020
 
KEZF - Fredericksburg/Shan, Virginia
Distance from station: SSW 78mi, 126km
Updated: Tue, 25-Jul-2017 2:15am EDT
Clear
Clear
 
Temperature: 79°F , 26°C
Dew Point: 68°F , 20°C
Humidity: 70%
Barometer: 29.94 inHg , 1013.9 hPa
Clouds: Clear
Visibility: 10 miles , 16 km
2017/07/25 06:15 KEZF 250615Z AUTO 10SM CLR 26/20 A2994 RMK AO2 T02550197
KOKV - Winchester Regional Airport, Virginia
Distance from station: W 78mi, 126km
Updated: Tue, 25-Jul-2017 2:15am EDT
Clear
Clear
 Wind from N
Wind: N 5 mph , 7 km/h
Temperature: 68°F , 20°C
Dew Point: 59°F , 15°C
Humidity: 73%
Barometer: 30.00 inHg , 1015.9 hPa
Clouds: Clear
Visibility: 10 miles , 16 km
2017/07/25 06:15 KOKV 250615Z AUTO 36004KT 10SM CLR 20/15 A3000 RMK AO2
KCJR - Culpeper Regional Airport, Virginia
Distance from station: SW 79mi, 128km
Updated: Tue, 25-Jul-2017 2:15am EDT
Clear
Clear
 Wind from N
Wind: N 7 mph , 11 km/h
Temperature: 75°F , 24°C
Dew Point: 66°F , 19°C
Humidity: 74%
Barometer: 29.97 inHg , 1014.9 hPa
Clouds: Clear
Visibility: 10 miles , 16 km
2017/07/25 06:15 KCJR 250615Z AUTO 01006KT 10SM CLR 24/19 A2997 RMK AO2 T02360193